sensor_id;sensor_type;location;lat;lon;timestamp;temperature;humidity
56076;DHT22;41951;49.022;12.066;2022-12-18T00:01:17;-3.30;99.90
56076;DHT22;41951;49.022;12.066;2022-12-18T00:03:42;-3.30;99.90
56076;DHT22;41951;49.022;12.066;2022-12-18T00:06:09;-3.30;99.90
56076;DHT22;41951;49.022;12.066;2022-12-18T00:08:35;-3.40;99.90
56076;DHT22;41951;49.022;12.066;2022-12-18T00:11:08;-0.90;99.90
56076;DHT22;41951;49.022;12.066;2022-12-18T00:13:34;-3.30;99.90
56076;DHT22;41951;49.022;12.066;2022-12-18T00:16:04;-3.30;99.90
56076;DHT22;41951;49.022;12.066;2022-12-18T00:18:31;-3.30;99.90
56076;DHT22;41951;49.022;12.066;2022-12-18T00:21:02;-3.20;99.90
56076;DHT22;41951;49.022;12.066;2022-12-18T00:23:28;-3.00;99.90
56076;DHT22;41951;49.022;12.066;2022-12-18T00:25:54;-3.20;99.90
56076;DHT22;41951;49.022;12.066;2022-12-18T00:28:20;-3.10;99.90
56076;DHT22;41951;49.022;12.066;2022-12-18T00:30:46;-3.10;99.90
56076;DHT22;41951;49.022;12.066;2022-12-18T00:33:11;-3.10;99.90
56076;DHT22;41951;49.022;12.066;2022-12-18T00:35:37;-3.10;99.90
56076;DHT22;41951;49.022;12.066;2022-12-18T00:38:02;-3.00;99.90
56076;DHT22;41951;49.022;12.066;2022-12-18T00:40:28;-3.10;99.90
56076;DHT22;41951;49.022;12.066;2022-12-18T00:42:54;-3.10;99.90
56076;DHT22;41951;49.022;12.066;2022-12-18T00:45:27;-3.00;99.90
56076;DHT22;41951;49.022;12.066;2022-12-18T00:47:52;-3.00;99.90
56076;DHT22;41951;49.022;12.066;2022-12-18T00:50:18;-2.90;99.90
56076;DHT22;41951;49.022;12.066;2022-12-18T00:52:44;0.60;99.90
56076;DHT22;41951;49.022;12.066;2022-12-18T00:55:10;-2.90;99.90
56076;DHT22;41951;49.022;12.066;2022-12-18T00:57:36;-2.90;99.90
56076;DHT22;41951;49.022;12.066;2022-12-18T01:00:04;-2.90;99.90
56076;DHT22;41951;49.022;12.066;2022-12-18T01:02:30;-2.80;99.90
56076;DHT22;41951;49.022;12.066;2022-12-18T01:04:55;-2.90;99.90
56076;DHT22;41951;49.022;12.066;2022-12-18T01:07:21;-2.90;99.90
56076;DHT22;41951;49.022;12.066;2022-12-18T01:09:46;-2.90;99.90
56076;DHT22;41951;49.022;12.066;2022-12-18T01:12:12;-2.90;99.90
56076;DHT22;41951;49.022;12.066;2022-12-18T01:14:37;-2.90;99.90
56076;DHT22;41951;49.022;12.066;2022-12-18T01:17:04;-2.80;99.90
56076;DHT22;41951;49.022;12.066;2022-12-18T01:19:29;-2.80;99.90
56076;DHT22;41951;49.022;12.066;2022-12-18T01:21:55;-2.80;99.90
56076;DHT22;41951;49.022;12.066;2022-12-18T01:24:21;-2.80;99.90
56076;DHT22;41951;49.022;12.066;2022-12-18T01:26:47;-2.60;99.90
56076;DHT22;41951;49.022;12.066;2022-12-18T01:29:12;-2.80;99.90
56076;DHT22;41951;49.022;12.066;2022-12-18T01:31:38;-2.80;99.90
56076;DHT22;41951;49.022;12.066;2022-12-18T01:34:05;-2.80;99.90
56076;DHT22;41951;49.022;12.066;2022-12-18T01:36:33;-2.80;99.90
56076;DHT22;41951;49.022;12.066;2022-12-18T01:39:03;-2.90;99.90
56076;DHT22;41951;49.022;12.066;2022-12-18T01:41:30;-2.90;99.90
56076;DHT22;41951;49.022;12.066;2022-12-18T01:50:05;-3.00;99.90
56076;DHT22;41951;49.022;12.066;2022-12-18T01:52:32;-2.90;99.90
56076;DHT22;41951;49.022;12.066;2022-12-18T01:54:58;-2.90;99.90
56076;DHT22;41951;49.022;12.066;2022-12-18T01:57:25;-3.00;99.90
56076;DHT22;41951;49.022;12.066;2022-12-18T01:59:52;-3.00;99.90
56076;DHT22;41951;49.022;12.066;2022-12-18T02:02:20;-3.00;99.90
56076;DHT22;41951;49.022;12.066;2022-12-18T02:04:46;-3.00;99.90
56076;DHT22;41951;49.022;12.066;2022-12-18T02:10:06;-3.10;99.90
56076;DHT22;41951;49.022;12.066;2022-12-18T02:12:45;-3.10;99.90
56076;DHT22;41951;49.022;12.066;2022-12-18T02:15:20;-3.00;99.90
56076;DHT22;41951;49.022;12.066;2022-12-18T02:18:00;-3.00;99.90
56076;DHT22;41951;49.022;12.066;2022-12-18T02:20:40;-3.00;99.90
56076;DHT22;41951;49.022;12.066;2022-12-18T02:23:37;-3.00;99.90
56076;DHT22;41951;49.022;12.066;2022-12-18T02:26:27;-2.90;99.90
56076;DHT22;41951;49.022;12.066;2022-12-18T02:29:00;-2.90;99.90
56076;DHT22;41951;49.022;12.066;2022-12-18T02:31:30;-2.90;99.90
56076;DHT22;41951;49.022;12.066;2022-12-18T02:34:01;-2.80;99.90
56076;DHT22;41951;49.022;12.066;2022-12-18T02:36:28;-2.80;99.90
56076;DHT22;41951;49.022;12.066;2022-12-18T02:38:55;-2.80;99.90
56076;DHT22;41951;49.022;12.066;2022-12-18T02:41:22;-2.80;99.90
56076;DHT22;41951;49.022;12.066;2022-12-18T02:43:52;-2.80;99.90
56076;DHT22;41951;49.022;12.066;2022-12-18T02:46:46;-2.80;99.90
56076;DHT22;41951;49.022;12.066;2022-12-18T02:52:11;-2.80;99.90
56076;DHT22;41951;49.022;12.066;2022-12-18T02:57:17;-2.70;99.90
56076;DHT22;41951;49.022;12.066;2022-12-18T02:59:56;-2.80;99.90
56076;DHT22;41951;49.022;12.066;2022-12-18T03:05:17;-2.90;99.90
56076;DHT22;41951;49.022;12.066;2022-12-18T03:10:21;-2.90;99.90
56076;DHT22;41951;49.022;12.066;2022-12-18T03:12:54;-2.90;99.90
56076;DHT22;41951;49.022;12.066;2022-12-18T03:15:31;-2.90;99.90
56076;DHT22;41951;49.022;12.066;2022-12-18T03:18:08;-2.90;99.90
56076;DHT22;41951;49.022;12.066;2022-12-18T03:20:37;-2.90;99.90
56076;DHT22;41951;49.022;12.066;2022-12-18T03:23:10;-2.90;99.90
56076;DHT22;41951;49.022;12.066;2022-12-18T03:25:39;-3.00;99.90
56076;DHT22;41951;49.022;12.066;2022-12-18T03:28:09;-3.00;99.90
56076;DHT22;41951;49.022;12.066;2022-12-18T03:30:39;-3.00;99.90
56076;DHT22;41951;49.022;12.066;2022-12-18T03:33:10;-3.00;99.90
56076;DHT22;41951;49.022;12.066;2022-12-18T03:35:40;-3.00;99.90
56076;DHT22;41951;49.022;12.066;2022-12-18T03:38:07;-2.90;99.90
56076;DHT22;41951;49.022;12.066;2022-12-18T03:41:05;-3.00;99.90
56076;DHT22;41951;49.022;12.066;2022-12-18T03:43:43;-2.90;99.90
56076;DHT22;41951;49.022;12.066;2022-12-18T03:46:25;-3.00;99.90
56076;DHT22;41951;49.022;12.066;2022-12-18T03:49:18;-3.00;99.90
56076;DHT22;41951;49.022;12.066;2022-12-18T03:52:14;-3.00;99.90
56076;DHT22;41951;49.022;12.066;2022-12-18T03:54:45;-3.00;99.90
56076;DHT22;41951;49.022;12.066;2022-12-18T03:57:15;-3.00;99.90
56076;DHT22;41951;49.022;12.066;2022-12-18T03:59:41;-2.90;99.90
56076;DHT22;41951;49.022;12.066;2022-12-18T04:02:08;-2.90;99.90
56076;DHT22;41951;49.022;12.066;2022-12-18T04:04:37;-2.90;99.90
56076;DHT22;41951;49.022;12.066;2022-12-18T04:07:04;-2.90;99.90
56076;DHT22;41951;49.022;12.066;2022-12-18T04:09:31;-3.00;99.90
56076;DHT22;41951;49.022;12.066;2022-12-18T04:11:58;-3.00;99.90
56076;DHT22;41951;49.022;12.066;2022-12-18T04:14:23;-3.00;99.90
56076;DHT22;41951;49.022;12.066;2022-12-18T04:16:49;-3.00;99.90
56076;DHT22;41951;49.022;12.066;2022-12-18T04:19:14;-3.10;99.90
56076;DHT22;41951;49.022;12.066;2022-12-18T04:21:40;-3.10;99.90
56076;DHT22;41951;49.022;12.066;2022-12-18T04:24:06;-3.00;99.90
56076;DHT22;41951;49.022;12.066;2022-12-18T04:26:31;-3.00;99.90
56076;DHT22;41951;49.022;12.066;2022-12-18T04:28:57;-3.00;99.90
56076;DHT22;41951;49.022;12.066;2022-12-18T04:31:23;-3.00;99.90
56076;DHT22;41951;49.022;12.066;2022-12-18T04:33:48;-3.00;99.90
56076;DHT22;41951;49.022;12.066;2022-12-18T04:36:14;-3.00;99.90
56076;DHT22;41951;49.022;12.066;2022-12-18T04:38:40;-3.00;99.90
56076;DHT22;41951;49.022;12.066;2022-12-18T04:41:05;-3.00;99.90
56076;DHT22;41951;49.022;12.066;2022-12-18T04:43:31;-3.00;99.90
56076;DHT22;41951;49.022;12.066;2022-12-18T04:46:08;-3.10;99.90
56076;DHT22;41951;49.022;12.066;2022-12-18T04:48:34;-3.00;99.90
56076;DHT22;41951;49.022;12.066;2022-12-18T04:51:00;-3.00;99.90
56076;DHT22;41951;49.022;12.066;2022-12-18T04:53:25;-3.10;99.90
56076;DHT22;41951;49.022;12.066;2022-12-18T04:56:05;-3.00;99.90
56076;DHT22;41951;49.022;12.066;2022-12-18T04:58:31;-3.00;99.90
56076;DHT22;41951;49.022;12.066;2022-12-18T05:00:57;-3.00;99.90
56076;DHT22;41951;49.022;12.066;2022-12-18T05:03:22;-3.00;99.90
56076;DHT22;41951;49.022;12.066;2022-12-18T05:05:51;-3.00;99.90
56076;DHT22;41951;49.022;12.066;2022-12-18T05:08:17;-3.00;99.90
56076;DHT22;41951;49.022;12.066;2022-12-18T05:10:42;-3.10;99.90
56076;DHT22;41951;49.022;12.066;2022-12-18T05:13:09;-3.10;99.90
56076;DHT22;41951;49.022;12.066;2022-12-18T05:15:34;-3.10;99.90
56076;DHT22;41951;49.022;12.066;2022-12-18T05:18:00;-3.10;99.90
56076;DHT22;41951;49.022;12.066;2022-12-18T05:20:27;-3.10;99.90
56076;DHT22;41951;49.022;12.066;2022-12-18T05:22:53;-3.10;99.90
56076;DHT22;41951;49.022;12.066;2022-12-18T05:25:19;-3.20;99.90
56076;DHT22;41951;49.022;12.066;2022-12-18T05:27:45;-3.20;99.90
56076;DHT22;41951;49.022;12.066;2022-12-18T05:30:12;-3.20;99.90
56076;DHT22;41951;49.022;12.066;2022-12-18T05:32:38;-3.20;99.90
56076;DHT22;41951;49.022;12.066;2022-12-18T05:35:04;-3.20;99.90
56076;DHT22;41951;49.022;12.066;2022-12-18T05:37:31;-3.20;99.90
56076;DHT22;41951;49.022;12.066;2022-12-18T05:39:56;-3.20;99.90
56076;DHT22;41951;49.022;12.066;2022-12-18T05:42:22;-3.20;99.90
56076;DHT22;41951;49.022;12.066;2022-12-18T05:44:47;-3.20;99.90
56076;DHT22;41951;49.022;12.066;2022-12-18T05:47:13;-3.20;99.90
56076;DHT22;41951;49.022;12.066;2022-12-18T05:49:39;-3.20;99.90
56076;DHT22;41951;49.022;12.066;2022-12-18T05:52:05;-3.20;99.90
56076;DHT22;41951;49.022;12.066;2022-12-18T05:54:30;-3.30;99.90
56076;DHT22;41951;49.022;12.066;2022-12-18T05:56:56;-3.30;99.90
56076;DHT22;41951;49.022;12.066;2022-12-18T05:59:22;-3.40;99.90
56076;DHT22;41951;49.022;12.066;2022-12-18T06:01:48;-3.40;99.90
56076;DHT22;41951;49.022;12.066;2022-12-18T06:04:14;-3.50;99.90
56076;DHT22;41951;49.022;12.066;2022-12-18T06:06:40;-3.40;99.90
56076;DHT22;41951;49.022;12.066;2022-12-18T06:09:05;-3.40;99.90
56076;DHT22;41951;49.022;12.066;2022-12-18T06:11:36;-3.40;99.90
56076;DHT22;41951;49.022;12.066;2022-12-18T06:14:04;-3.30;99.90
56076;DHT22;41951;49.022;12.066;2022-12-18T06:16:30;-3.30;99.90
56076;DHT22;41951;49.022;12.066;2022-12-18T06:18:58;-3.40;99.90
56076;DHT22;41951;49.022;12.066;2022-12-18T06:21:23;-3.40;99.90
56076;DHT22;41951;49.022;12.066;2022-12-18T06:23:49;-3.40;99.90
56076;DHT22;41951;49.022;12.066;2022-12-18T06:26:15;-3.50;99.90
56076;DHT22;41951;49.022;12.066;2022-12-18T06:28:40;-3.40;99.90
56076;DHT22;41951;49.022;12.066;2022-12-18T06:31:06;-3.40;99.90
56076;DHT22;41951;49.022;12.066;2022-12-18T06:33:33;-3.40;99.90
56076;DHT22;41951;49.022;12.066;2022-12-18T06:38:33;-3.40;99.90
56076;DHT22;41951;49.022;12.066;2022-12-18T06:40:59;-3.40;99.90
56076;DHT22;41951;49.022;12.066;2022-12-18T06:43:25;-3.40;99.90
56076;DHT22;41951;49.022;12.066;2022-12-18T06:45:50;-3.40;99.90
56076;DHT22;41951;49.022;12.066;2022-12-18T06:48:19;-3.40;99.90
56076;DHT22;41951;49.022;12.066;2022-12-18T06:50:45;-3.40;99.90
56076;DHT22;41951;49.022;12.066;2022-12-18T06:53:11;-3.40;99.90
56076;DHT22;41951;49.022;12.066;2022-12-18T06:55:37;-3.40;99.90
56076;DHT22;41951;49.022;12.066;2022-12-18T06:58:02;-3.50;99.90
56076;DHT22;41951;49.022;12.066;2022-12-18T07:00:28;-3.50;99.90
56076;DHT22;41951;49.022;12.066;2022-12-18T07:02:53;-3.50;99.90
56076;DHT22;41951;49.022;12.066;2022-12-18T07:05:19;-3.50;99.90
56076;DHT22;41951;49.022;12.066;2022-12-18T07:07:44;-3.50;99.90
56076;DHT22;41951;49.022;12.066;2022-12-18T07:10:10;-3.40;99.90
56076;DHT22;41951;49.022;12.066;2022-12-18T07:12:36;-3.40;99.90
56076;DHT22;41951;49.022;12.066;2022-12-18T07:15:02;-3.40;99.90
56076;DHT22;41951;49.022;12.066;2022-12-18T07:17:28;-3.50;99.90
56076;DHT22;41951;49.022;12.066;2022-12-18T07:19:54;-3.50;99.90
56076;DHT22;41951;49.022;12.066;2022-12-18T07:22:20;-3.50;99.90
56076;DHT22;41951;49.022;12.066;2022-12-18T07:24:46;-3.40;99.90
56076;DHT22;41951;49.022;12.066;2022-12-18T07:27:15;-3.40;99.90
56076;DHT22;41951;49.022;12.066;2022-12-18T07:29:40;-3.40;99.90
56076;DHT22;41951;49.022;12.066;2022-12-18T07:32:06;-3.20;99.90
56076;DHT22;41951;49.022;12.066;2022-12-18T07:34:32;-3.30;99.90
56076;DHT22;41951;49.022;12.066;2022-12-18T07:36:58;-3.30;99.90
56076;DHT22;41951;49.022;12.066;2022-12-18T07:39:23;-3.30;99.90
56076;DHT22;41951;49.022;12.066;2022-12-18T07:41:49;-3.30;99.90
56076;DHT22;41951;49.022;12.066;2022-12-18T07:44:35;-3.30;99.90
56076;DHT22;41951;49.022;12.066;2022-12-18T07:47:01;-3.20;99.90
56076;DHT22;41951;49.022;12.066;2022-12-18T07:49:27;-3.20;99.90
56076;DHT22;41951;49.022;12.066;2022-12-18T07:51:55;-3.30;99.90
56076;DHT22;41951;49.022;12.066;2022-12-18T07:54:22;-3.30;99.90
56076;DHT22;41951;49.022;12.066;2022-12-18T07:56:48;-3.20;99.90
56076;DHT22;41951;49.022;12.066;2022-12-18T07:59:13;-3.30;99.90
56076;DHT22;41951;49.022;12.066;2022-12-18T08:01:39;-3.20;99.90
56076;DHT22;41951;49.022;12.066;2022-12-18T08:04:04;-3.30;99.90
56076;DHT22;41951;49.022;12.066;2022-12-18T08:06:30;-3.20;99.90
56076;DHT22;41951;49.022;12.066;2022-12-18T08:08:56;-3.20;99.90
56076;DHT22;41951;49.022;12.066;2022-12-18T08:11:23;-3.20;99.90
56076;DHT22;41951;49.022;12.066;2022-12-18T08:13:49;-3.10;99.90
56076;DHT22;41951;49.022;12.066;2022-12-18T08:16:15;-3.10;99.90
56076;DHT22;41951;49.022;12.066;2022-12-18T08:18:41;-3.10;99.90
56076;DHT22;41951;49.022;12.066;2022-12-18T08:21:12;-3.10;99.90
56076;DHT22;41951;49.022;12.066;2022-12-18T08:23:37;-3.00;99.90
56076;DHT22;41951;49.022;12.066;2022-12-18T08:26:03;-3.00;99.90
56076;DHT22;41951;49.022;12.066;2022-12-18T08:28:29;-3.00;99.90
56076;DHT22;41951;49.022;12.066;2022-12-18T08:30:54;-3.00;99.90
56076;DHT22;41951;49.022;12.066;2022-12-18T08:33:20;-3.00;99.90
56076;DHT22;41951;49.022;12.066;2022-12-18T08:35:46;-3.00;99.90
56076;DHT22;41951;49.022;12.066;2022-12-18T08:38:11;-3.00;99.90
56076;DHT22;41951;49.022;12.066;2022-12-18T08:40:37;-1.70;99.90
56076;DHT22;41951;49.022;12.066;2022-12-18T08:43:02;-3.20;99.90
56076;DHT22;41951;49.022;12.066;2022-12-18T08:45:46;-3.20;99.90
56076;DHT22;41951;49.022;12.066;2022-12-18T08:48:12;-3.20;99.90
56076;DHT22;41951;49.022;12.066;2022-12-18T08:50:38;-3.20;99.90
56076;DHT22;41951;49.022;12.066;2022-12-18T08:53:03;-3.20;99.90
56076;DHT22;41951;49.022;12.066;2022-12-18T08:55:29;-3.20;99.90
56076;DHT22;41951;49.022;12.066;2022-12-18T08:57:54;-3.30;99.90
56076;DHT22;41951;49.022;12.066;2022-12-18T09:00:20;-3.20;99.90
56076;DHT22;41951;49.022;12.066;2022-12-18T09:02:46;-3.20;99.90
56076;DHT22;41951;49.022;12.066;2022-12-18T09:05:11;-3.10;99.90
56076;DHT22;41951;49.022;12.066;2022-12-18T09:07:37;-3.10;99.90
56076;DHT22;41951;49.022;12.066;2022-12-18T09:10:03;-3.10;99.90
56076;DHT22;41951;49.022;12.066;2022-12-18T09:12:29;-3.00;99.90
56076;DHT22;41951;49.022;12.066;2022-12-18T09:14:54;-2.90;99.90
56076;DHT22;41951;49.022;12.066;2022-12-18T09:17:21;-2.80;99.90
56076;DHT22;41951;49.022;12.066;2022-12-18T09:19:47;-2.70;99.90
56076;DHT22;41951;49.022;12.066;2022-12-18T09:22:13;-2.60;99.90
56076;DHT22;41951;49.022;12.066;2022-12-18T09:24:38;-2.60;99.90
56076;DHT22;41951;49.022;12.066;2022-12-18T09:27:04;-2.70;99.90
56076;DHT22;41951;49.022;12.066;2022-12-18T09:29:29;-2.70;99.90
56076;DHT22;41951;49.022;12.066;2022-12-18T09:31:55;-2.70;99.90
56076;DHT22;41951;49.022;12.066;2022-12-18T09:34:21;-2.80;99.90
56076;DHT22;41951;49.022;12.066;2022-12-18T09:36:47;-2.80;99.90
56076;DHT22;41951;49.022;12.066;2022-12-18T09:39:13;-2.80;99.90
56076;DHT22;41951;49.022;12.066;2022-12-18T09:41:56;-2.80;99.90
56076;DHT22;41951;49.022;12.066;2022-12-18T09:44:39;-2.80;99.90
56076;DHT22;41951;49.022;12.066;2022-12-18T09:49:43;-2.70;99.90
56076;DHT22;41951;49.022;12.066;2022-12-18T09:52:37;-2.70;99.90
56076;DHT22;41951;49.022;12.066;2022-12-18T09:55:24;-2.70;99.90
56076;DHT22;41951;49.022;12.066;2022-12-18T09:58:02;-2.60;99.90
56076;DHT22;41951;49.022;12.066;2022-12-18T10:00:29;-2.60;99.90
56076;DHT22;41951;49.022;12.066;2022-12-18T10:03:02;-2.60;99.90
56076;DHT22;41951;49.022;12.066;2022-12-18T10:05:43;-2.60;99.90
56076;DHT22;41951;49.022;12.066;2022-12-18T10:08:23;-2.60;99.90
56076;DHT22;41951;49.022;12.066;2022-12-18T10:10:52;-2.60;99.90
56076;DHT22;41951;49.022;12.066;2022-12-18T10:13:21;-2.60;99.90
56076;DHT22;41951;49.022;12.066;2022-12-18T10:16:22;-2.60;99.90
56076;DHT22;41951;49.022;12.066;2022-12-18T10:21:42;-2.70;99.90
56076;DHT22;41951;49.022;12.066;2022-12-18T10:25:18;-2.70;99.90
56076;DHT22;41951;49.022;12.066;2022-12-18T10:27:25;-2.60;99.90
56076;DHT22;41951;49.022;12.066;2022-12-18T10:29:51;-2.60;99.90
56076;DHT22;41951;49.022;12.066;2022-12-18T10:32:22;-2.40;99.90
56076;DHT22;41951;49.022;12.066;2022-12-18T10:34:49;-2.50;99.90
56076;DHT22;41951;49.022;12.066;2022-12-18T10:37:21;-2.40;99.90
56076;DHT22;41951;49.022;12.066;2022-12-18T10:40:08;-2.50;99.90
56076;DHT22;41951;49.022;12.066;2022-12-18T10:42:34;-2.60;99.90
56076;DHT22;41951;49.022;12.066;2022-12-18T10:45:15;-2.60;99.90
56076;DHT22;41951;49.022;12.066;2022-12-18T10:47:44;-2.60;99.90
56076;DHT22;41951;49.022;12.066;2022-12-18T10:50:33;-2.70;99.90
56076;DHT22;41951;49.022;12.066;2022-12-18T10:53:01;-2.80;99.90
56076;DHT22;41951;49.022;12.066;2022-12-18T10:55:38;-2.80;99.90
56076;DHT22;41951;49.022;12.066;2022-12-18T10:58:26;-2.80;99.90
56076;DHT22;41951;49.022;12.066;2022-12-18T11:01:13;-2.90;99.90
56076;DHT22;41951;49.022;12.066;2022-12-18T11:03:44;-2.90;99.90
56076;DHT22;41951;49.022;12.066;2022-12-18T11:06:18;-2.90;99.90
56076;DHT22;41951;49.022;12.066;2022-12-18T11:09:08;-2.90;99.90
56076;DHT22;41951;49.022;12.066;2022-12-18T11:11:52;-2.80;99.90
56076;DHT22;41951;49.022;12.066;2022-12-18T11:16:49;-2.90;99.90
56076;DHT22;41951;49.022;12.066;2022-12-18T11:19:37;-2.80;99.90
56076;DHT22;41951;49.022;12.066;2022-12-18T11:22:26;-2.70;99.90
56076;DHT22;41951;49.022;12.066;2022-12-18T11:25:18;-2.70;99.90
56076;DHT22;41951;49.022;12.066;2022-12-18T11:27:56;-2.70;99.90
56076;DHT22;41951;49.022;12.066;2022-12-18T11:30:24;-2.60;99.90
56076;DHT22;41951;49.022;12.066;2022-12-18T11:35:32;-2.60;99.90
56076;DHT22;41951;49.022;12.066;2022-12-18T11:38:28;-2.60;99.90
56076;DHT22;41951;49.022;12.066;2022-12-18T11:40:56;-2.60;99.90
56076;DHT22;41951;49.022;12.066;2022-12-18T11:44:00;-2.60;99.90
56076;DHT22;41951;49.022;12.066;2022-12-18T11:46:32;-2.60;99.90
56076;DHT22;41951;49.022;12.066;2022-12-18T11:49:03;-2.50;99.90
56076;DHT22;41951;49.022;12.066;2022-12-18T11:54:15;-2.40;99.90
56076;DHT22;41951;49.022;12.066;2022-12-18T11:56:58;-2.50;99.90
56076;DHT22;41951;49.022;12.066;2022-12-18T12:07:44;-2.30;99.90
56076;DHT22;41951;49.022;12.066;2022-12-18T12:21:39;-2.20;99.90
56076;DHT22;41951;49.022;12.066;2022-12-18T12:30:20;-2.50;99.90
56076;DHT22;41951;49.022;12.066;2022-12-18T12:38:41;-2.50;99.90
56076;DHT22;41951;49.022;12.066;2022-12-18T12:41:11;-1.90;99.90
56076;DHT22;41951;49.022;12.066;2022-12-18T12:44:00;-2.50;99.90
56076;DHT22;41951;49.022;12.066;2022-12-18T12:46:26;-2.40;99.90
56076;DHT22;41951;49.022;12.066;2022-12-18T12:49:02;-2.50;99.90
56076;DHT22;41951;49.022;12.066;2022-12-18T12:51:35;-2.50;99.90
56076;DHT22;41951;49.022;12.066;2022-12-18T12:54:10;-2.50;99.90
56076;DHT22;41951;49.022;12.066;2022-12-18T13:00:10;-2.70;99.90
56076;DHT22;41951;49.022;12.066;2022-12-18T13:02:44;-2.70;99.90
56076;DHT22;41951;49.022;12.066;2022-12-18T13:05:21;-2.70;99.90
56076;DHT22;41951;49.022;12.066;2022-12-18T13:08:11;-2.60;99.90
56076;DHT22;41951;49.022;12.066;2022-12-18T13:10:41;-2.60;99.90
56076;DHT22;41951;49.022;12.066;2022-12-18T13:13:09;-2.60;99.90
56076;DHT22;41951;49.022;12.066;2022-12-18T13:15:47;-2.60;99.90
56076;DHT22;41951;49.022;12.066;2022-12-18T13:25:45;-2.50;99.90
56076;DHT22;41951;49.022;12.066;2022-12-18T13:28:13;-2.40;99.90
56076;DHT22;41951;49.022;12.066;2022-12-18T13:30:51;-2.30;99.90
56076;DHT22;41951;49.022;12.066;2022-12-18T13:38:39;-2.30;99.90
56076;DHT22;41951;49.022;12.066;2022-12-18T13:43:46;-2.50;99.90
56076;DHT22;41951;49.022;12.066;2022-12-18T13:46:44;-2.50;99.90
56076;DHT22;41951;49.022;12.066;2022-12-18T13:51:44;-2.50;99.90
56076;DHT22;41951;49.022;12.066;2022-12-18T13:54:36;-2.40;99.90
56076;DHT22;41951;49.022;12.066;2022-12-18T13:57:04;-2.30;99.90
56076;DHT22;41951;49.022;12.066;2022-12-18T13:59:36;-2.30;99.90
56076;DHT22;41951;49.022;12.066;2022-12-18T14:02:16;-2.20;99.90
56076;DHT22;41951;49.022;12.066;2022-12-18T14:04:45;-2.30;99.90
56076;DHT22;41951;49.022;12.066;2022-12-18T14:09:44;-2.20;99.90
56076;DHT22;41951;49.022;12.066;2022-12-18T14:12:27;-2.30;99.90
56076;DHT22;41951;49.022;12.066;2022-12-18T14:17:50;-2.50;99.90
56076;DHT22;41951;49.022;12.066;2022-12-18T14:20:17;-2.50;99.90
56076;DHT22;41951;49.022;12.066;2022-12-18T14:22:45;-2.60;99.90
56076;DHT22;41951;49.022;12.066;2022-12-18T14:27:45;-2.70;99.90
56076;DHT22;41951;49.022;12.066;2022-12-18T14:30:31;-2.70;99.90
56076;DHT22;41951;49.022;12.066;2022-12-18T14:35:39;-2.80;99.90
56076;DHT22;41951;49.022;12.066;2022-12-18T14:38:21;-2.80;99.90
56076;DHT22;41951;49.022;12.066;2022-12-18T14:40:47;-2.90;99.90
56076;DHT22;41951;49.022;12.066;2022-12-18T14:43:16;-2.90;99.90
56076;DHT22;41951;49.022;12.066;2022-12-18T14:45:43;-3.00;99.90
56076;DHT22;41951;49.022;12.066;2022-12-18T14:50:43;-3.00;99.90
56076;DHT22;41951;49.022;12.066;2022-12-18T14:53:36;-3.00;99.90
56076;DHT22;41951;49.022;12.066;2022-12-18T14:56:11;-3.00;99.90
56076;DHT22;41951;49.022;12.066;2022-12-18T14:58:39;-3.00;99.90
56076;DHT22;41951;49.022;12.066;2022-12-18T15:01:04;-3.10;99.90
56076;DHT22;41951;49.022;12.066;2022-12-18T15:03:31;-3.10;99.90
56076;DHT22;41951;49.022;12.066;2022-12-18T15:06:21;-3.10;99.90
56076;DHT22;41951;49.022;12.066;2022-12-18T15:08:49;-3.10;99.90
56076;DHT22;41951;49.022;12.066;2022-12-18T15:11:33;-3.20;99.90
56076;DHT22;41951;49.022;12.066;2022-12-18T15:14:00;-3.30;99.90
56076;DHT22;41951;49.022;12.066;2022-12-18T15:16:50;-3.30;99.90
56076;DHT22;41951;49.022;12.066;2022-12-18T15:19:16;-3.30;99.90
56076;DHT22;41951;49.022;12.066;2022-12-18T15:21:43;-3.30;99.90
56076;DHT22;41951;49.022;12.066;2022-12-18T15:24:21;-3.30;99.90
56076;DHT22;41951;49.022;12.066;2022-12-18T15:26:48;-3.20;99.90
56076;DHT22;41951;49.022;12.066;2022-12-18T15:29:20;-3.30;99.90
56076;DHT22;41951;49.022;12.066;2022-12-18T15:31:59;-3.30;99.90
56076;DHT22;41951;49.022;12.066;2022-12-18T15:34:25;-3.30;99.90
56076;DHT22;41951;49.022;12.066;2022-12-18T15:36:51;-3.40;99.90
56076;DHT22;41951;49.022;12.066;2022-12-18T15:39:17;-3.40;99.90
56076;DHT22;41951;49.022;12.066;2022-12-18T15:41:43;-3.40;99.90
56076;DHT22;41951;49.022;12.066;2022-12-18T15:44:29;-3.40;99.90
56076;DHT22;41951;49.022;12.066;2022-12-18T15:46:56;-3.40;99.90
56076;DHT22;41951;49.022;12.066;2022-12-18T15:49:21;-3.40;99.90
56076;DHT22;41951;49.022;12.066;2022-12-18T15:51:52;-3.40;99.90
56076;DHT22;41951;49.022;12.066;2022-12-18T15:54:19;-3.30;99.90
56076;DHT22;41951;49.022;12.066;2022-12-18T15:57:04;-3.30;99.90
56076;DHT22;41951;49.022;12.066;2022-12-18T15:59:48;-3.30;99.90
56076;DHT22;41951;49.022;12.066;2022-12-18T16:02:17;-3.30;99.90
56076;DHT22;41951;49.022;12.066;2022-12-18T16:04:43;-3.30;99.90
56076;DHT22;41951;49.022;12.066;2022-12-18T16:07:09;-3.30;99.90
56076;DHT22;41951;49.022;12.066;2022-12-18T16:09:35;-3.10;99.90
56076;DHT22;41951;49.022;12.066;2022-12-18T16:12:01;-3.20;99.90
56076;DHT22;41951;49.022;12.066;2022-12-18T16:14:29;-3.00;99.90
56076;DHT22;41951;49.022;12.066;2022-12-18T16:16:58;-3.00;99.90
56076;DHT22;41951;49.022;12.066;2022-12-18T16:19:24;-3.10;99.90
56076;DHT22;41951;49.022;12.066;2022-12-18T16:21:51;-3.10;99.90
56076;DHT22;41951;49.022;12.066;2022-12-18T16:24:18;-3.10;99.90
56076;DHT22;41951;49.022;12.066;2022-12-18T16:26:44;-3.20;99.90
56076;DHT22;41951;49.022;12.066;2022-12-18T16:29:10;-3.20;99.90
56076;DHT22;41951;49.022;12.066;2022-12-18T16:31:36;-3.20;99.90
56076;DHT22;41951;49.022;12.066;2022-12-18T16:34:23;-3.30;99.90
56076;DHT22;41951;49.022;12.066;2022-12-18T16:36:53;-3.40;99.90
56076;DHT22;41951;49.022;12.066;2022-12-18T16:39:19;-3.50;99.90
56076;DHT22;41951;49.022;12.066;2022-12-18T16:41:45;-3.50;99.90
56076;DHT22;41951;49.022;12.066;2022-12-18T16:44:11;-3.50;99.90
56076;DHT22;41951;49.022;12.066;2022-12-18T16:46:37;-3.50;99.90
56076;DHT22;41951;49.022;12.066;2022-12-18T16:49:04;-3.60;99.90
56076;DHT22;41951;49.022;12.066;2022-12-18T16:51:34;-3.50;99.90
56076;DHT22;41951;49.022;12.066;2022-12-18T16:54:00;-3.50;99.90
56076;DHT22;41951;49.022;12.066;2022-12-18T16:56:26;-3.50;99.90
56076;DHT22;41951;49.022;12.066;2022-12-18T16:58:53;-3.50;99.90
56076;DHT22;41951;49.022;12.066;2022-12-18T17:01:19;-3.60;99.90
56076;DHT22;41951;49.022;12.066;2022-12-18T17:03:53;-3.60;99.90
56076;DHT22;41951;49.022;12.066;2022-12-18T17:06:19;-3.60;99.90
56076;DHT22;41951;49.022;12.066;2022-12-18T17:08:45;-3.50;99.90
56076;DHT22;41951;49.022;12.066;2022-12-18T17:11:11;-3.60;99.90
56076;DHT22;41951;49.022;12.066;2022-12-18T17:13:36;-3.60;99.90
56076;DHT22;41951;49.022;12.066;2022-12-18T17:16:06;-3.60;99.90